sensor_id;sensor_type;location;lat;lon;timestamp;P1;durP1;ratioP1;P2;durP2;ratioP2
83704;SDS011;73687;55.712;12.564;2024-01-11T00:01:08;5.0;;;4.5;;
83704;SDS011;73687;55.712;12.564;2024-01-11T00:04:07;5.9;;;5.3;;
83704;SDS011;73687;55.712;12.564;2024-01-11T00:07:07;5.9;;;5.3;;
83704;SDS011;73687;55.712;12.564;2024-01-11T00:10:07;6.6;;;6.0;;
83704;SDS011;73687;55.712;12.564;2024-01-11T00:13:07;6.1;;;5.5;;
83704;SDS011;73687;55.712;12.564;2024-01-11T00:16:07;5.4;;;4.9;;
83704;SDS011;73687;55.712;12.564;2024-01-11T00:19:07;5.3;;;4.8;;
83704;SDS011;73687;55.712;12.564;2024-01-11T00:22:07;5.1;;;4.6;;
83704;SDS011;73687;55.712;12.564;2024-01-11T00:25:07;5.7;;;5.0;;
83704;SDS011;73687;55.712;12.564;2024-01-11T00:28:06;6.2;;;5.6;;
83704;SDS011;73687;55.712;12.564;2024-01-11T00:31:07;5.8;;;5.2;;
83704;SDS011;73687;55.712;12.564;2024-01-11T00:34:08;6.2;;;5.6;;
83704;SDS011;73687;55.712;12.564;2024-01-11T00:37:07;6.1;;;5.5;;
83704;SDS011;73687;55.712;12.564;2024-01-11T00:40:07;5.3;;;4.8;;
83704;SDS011;73687;55.712;12.564;2024-01-11T00:43:06;5.7;;;5.1;;
83704;SDS011;73687;55.712;12.564;2024-01-11T00:46:06;6.3;;;5.4;;
83704;SDS011;73687;55.712;12.564;2024-01-11T00:49:07;6.0;;;5.4;;
83704;SDS011;73687;55.712;12.564;2024-01-11T00:52:07;7.6;;;6.5;;
83704;SDS011;73687;55.712;12.564;2024-01-11T00:55:07;5.7;;;5.1;;
83704;SDS011;73687;55.712;12.564;2024-01-11T00:58:07;5.3;;;4.8;;
83704;SDS011;73687;55.712;12.564;2024-01-11T01:01:08;6.0;;;5.5;;
83704;SDS011;73687;55.712;12.564;2024-01-11T01:04:06;5.9;;;5.3;;
83704;SDS011;73687;55.712;12.564;2024-01-11T01:07:07;7.1;;;5.9;;
83704;SDS011;73687;55.712;12.564;2024-01-11T01:10:07;7.2;;;6.0;;
83704;SDS011;73687;55.712;12.564;2024-01-11T01:13:06;6.5;;;5.9;;
83704;SDS011;73687;55.712;12.564;2024-01-11T01:16:06;5.7;;;5.1;;
83704;SDS011;73687;55.712;12.564;2024-01-11T01:19:06;4.8;;;4.4;;
83704;SDS011;73687;55.712;12.564;2024-01-11T01:22:07;4.5;;;4.1;;
83704;SDS011;73687;55.712;12.564;2024-01-11T01:25:07;4.9;;;4.4;;
83704;SDS011;73687;55.712;12.564;2024-01-11T01:28:07;4.7;;;3.6;;
83704;SDS011;73687;55.712;12.564;2024-01-11T01:31:07;4.2;;;3.8;;
83704;SDS011;73687;55.712;12.564;2024-01-11T01:34:07;4.5;;;4.1;;
83704;SDS011;73687;55.712;12.564;2024-01-11T01:37:07;4.9;;;4.4;;
83704;SDS011;73687;55.712;12.564;2024-01-11T01:40:08;4.8;;;4.4;;
83704;SDS011;73687;55.712;12.564;2024-01-11T01:43:07;4.8;;;4.3;;
83704;SDS011;73687;55.712;12.564;2024-01-11T01:46:07;4.3;;;3.9;;
83704;SDS011;73687;55.712;12.564;2024-01-11T01:49:07;4.8;;;4.3;;
83704;SDS011;73687;55.712;12.564;2024-01-11T01:52:07;5.6;;;4.6;;
83704;SDS011;73687;55.712;12.564;2024-01-11T01:55:07;4.4;;;4.0;;
83704;SDS011;73687;55.712;12.564;2024-01-11T01:58:07;4.6;;;4.2;;
83704;SDS011;73687;55.712;12.564;2024-01-11T02:01:07;5.6;;;4.7;;
83704;SDS011;73687;55.712;12.564;2024-01-11T02:04:06;4.3;;;3.7;;
83704;SDS011;73687;55.712;12.564;2024-01-11T02:07:06;4.6;;;4.0;;
83704;SDS011;73687;55.712;12.564;2024-01-11T02:10:07;4.3;;;3.9;;
83704;SDS011;73687;55.712;12.564;2024-01-11T02:13:07;5.2;;;4.7;;
83704;SDS011;73687;55.712;12.564;2024-01-11T02:16:07;4.6;;;4.2;;
83704;SDS011;73687;55.712;12.564;2024-01-11T02:19:07;4.5;;;4.1;;
83704;SDS011;73687;55.712;12.564;2024-01-11T02:22:08;3.7;;;3.3;;
83704;SDS011;73687;55.712;12.564;2024-01-11T02:25:07;4.4;;;4.0;;
83704;SDS011;73687;55.712;12.564;2024-01-11T02:28:07;5.3;;;4.3;;
83704;SDS011;73687;55.712;12.564;2024-01-11T02:31:07;4.6;;;4.1;;
83704;SDS011;73687;55.712;12.564;2024-01-11T02:34:06;5.0;;;4.5;;
83704;SDS011;73687;55.712;12.564;2024-01-11T02:37:06;4.3;;;3.9;;
83704;SDS011;73687;55.712;12.564;2024-01-11T02:40:07;5.0;;;4.5;;
83704;SDS011;73687;55.712;12.564;2024-01-11T02:43:07;3.6;;;3.1;;
83704;SDS011;73687;55.712;12.564;2024-01-11T02:46:07;3.4;;;3.1;;
83704;SDS011;73687;55.712;12.564;2024-01-11T02:49:07;4.1;;;3.7;;
83704;SDS011;73687;55.712;12.564;2024-01-11T02:52:07;4.1;;;3.7;;
83704;SDS011;73687;55.712;12.564;2024-01-11T02:55:07;5.0;;;4.5;;
83704;SDS011;73687;55.712;12.564;2024-01-11T02:58:07;4.6;;;4.1;;
83704;SDS011;73687;55.712;12.564;2024-01-11T03:01:07;4.8;;;3.8;;
83704;SDS011;73687;55.712;12.564;2024-01-11T03:04:07;3.6;;;3.3;;
83704;SDS011;73687;55.712;12.564;2024-01-11T03:07:07;4.0;;;3.6;;
83704;SDS011;73687;55.712;12.564;2024-01-11T03:10:07;4.1;;;3.7;;
83704;SDS011;73687;55.712;12.564;2024-01-11T03:13:07;3.9;;;3.5;;
83704;SDS011;73687;55.712;12.564;2024-01-11T03:16:07;3.4;;;3.1;;
83704;SDS011;73687;55.712;12.564;2024-01-11T03:19:07;4.3;;;3.6;;
83704;SDS011;73687;55.712;12.564;2024-01-11T03:22:07;4.3;;;3.9;;
83704;SDS011;73687;55.712;12.564;2024-01-11T03:25:07;5.1;;;3.9;;
83704;SDS011;73687;55.712;12.564;2024-01-11T03:28:07;4.9;;;3.9;;
83704;SDS011;73687;55.712;12.564;2024-01-11T03:31:07;4.1;;;3.1;;
83704;SDS011;73687;55.712;12.564;2024-01-11T03:34:07;4.8;;;4.0;;
83704;SDS011;73687;55.712;12.564;2024-01-11T03:37:07;4.2;;;3.8;;
83704;SDS011;73687;55.712;12.564;2024-01-11T03:40:08;4.6;;;3.8;;
83704;SDS011;73687;55.712;12.564;2024-01-11T03:43:06;3.4;;;2.7;;
83704;SDS011;73687;55.712;12.564;2024-01-11T03:46:06;3.6;;;3.0;;
83704;SDS011;73687;55.712;12.564;2024-01-11T03:49:07;3.4;;;3.1;;
83704;SDS011;73687;55.712;12.564;2024-01-11T03:52:07;3.3;;;3.0;;
83704;SDS011;73687;55.712;12.564;2024-01-11T03:55:07;4.4;;;3.1;;
83704;SDS011;73687;55.712;12.564;2024-01-11T03:58:06;4.3;;;3.3;;
83704;SDS011;73687;55.712;12.564;2024-01-11T04:01:07;3.5;;;2.9;;
83704;SDS011;73687;55.712;12.564;2024-01-11T04:04:07;4.1;;;3.0;;
83704;SDS011;73687;55.712;12.564;2024-01-11T04:07:07;3.5;;;3.0;;
83704;SDS011;73687;55.712;12.564;2024-01-11T04:10:08;4.0;;;3.4;;
83704;SDS011;73687;55.712;12.564;2024-01-11T04:13:07;3.0;;;2.5;;
83704;SDS011;73687;55.712;12.564;2024-01-11T04:16:07;3.4;;;2.9;;
83704;SDS011;73687;55.712;12.564;2024-01-11T04:19:07;2.8;;;2.3;;
83704;SDS011;73687;55.712;12.564;2024-01-11T04:22:07;3.4;;;2.1;;
83704;SDS011;73687;55.712;12.564;2024-01-11T04:25:07;3.5;;;2.4;;
83704;SDS011;73687;55.712;12.564;2024-01-11T04:28:07;2.2;;;1.9;;
83704;SDS011;73687;55.712;12.564;2024-01-11T04:31:07;2.5;;;1.9;;
83704;SDS011;73687;55.712;12.564;2024-01-11T04:34:06;2.7;;;2.1;;
83704;SDS011;73687;55.712;12.564;2024-01-11T04:37:06;2.7;;;2.3;;
83704;SDS011;73687;55.712;12.564;2024-01-11T04:40:07;2.6;;;2.1;;
83704;SDS011;73687;55.712;12.564;2024-01-11T04:43:07;3.3;;;1.8;;
83704;SDS011;73687;55.712;12.564;2024-01-11T04:46:15;2.5;;;2.0;;
83704;SDS011;73687;55.712;12.564;2024-01-11T04:49:07;2.2;;;1.6;;
83704;SDS011;73687;55.712;12.564;2024-01-11T04:52:07;2.4;;;1.8;;
83704;SDS011;73687;55.712;12.564;2024-01-11T04:55:07;2.5;;;2.0;;
83704;SDS011;73687;55.712;12.564;2024-01-11T04:58:07;3.4;;;2.4;;
83704;SDS011;73687;55.712;12.564;2024-01-11T05:01:07;2.5;;;2.0;;
83704;SDS011;73687;55.712;12.564;2024-01-11T05:04:07;2.4;;;2.0;;
83704;SDS011;73687;55.712;12.564;2024-01-11T05:07:07;2.3;;;1.8;;
83704;SDS011;73687;55.712;12.564;2024-01-11T05:10:07;4.6;;;2.3;;
83704;SDS011;73687;55.712;12.564;2024-01-11T05:13:07;2.4;;;1.9;;
83704;SDS011;73687;55.712;12.564;2024-01-11T05:16:08;3.7;;;2.3;;
83704;SDS011;73687;55.712;12.564;2024-01-11T05:19:07;2.9;;;1.8;;
83704;SDS011;73687;55.712;12.564;2024-01-11T05:22:07;3.0;;;2.2;;
83704;SDS011;73687;55.712;12.564;2024-01-11T05:25:07;2.9;;;2.3;;
83704;SDS011;73687;55.712;12.564;2024-01-11T05:28:07;2.8;;;2.4;;
83704;SDS011;73687;55.712;12.564;2024-01-11T05:31:08;3.2;;;2.6;;
83704;SDS011;73687;55.712;12.564;2024-01-11T05:34:07;2.7;;;2.2;;
83704;SDS011;73687;55.712;12.564;2024-01-11T05:37:06;2.6;;;1.7;;
83704;SDS011;73687;55.712;12.564;2024-01-11T05:40:07;2.5;;;1.9;;
83704;SDS011;73687;55.712;12.564;2024-01-11T05:43:06;2.3;;;2.0;;
83704;SDS011;73687;55.712;12.564;2024-01-11T05:46:06;2.2;;;1.5;;
83704;SDS011;73687;55.712;12.564;2024-01-11T05:49:06;1.6;;;1.3;;
83704;SDS011;73687;55.712;12.564;2024-01-11T05:52:06;2.7;;;2.0;;
83704;SDS011;73687;55.712;12.564;2024-01-11T05:55:06;2.9;;;1.9;;
83704;SDS011;73687;55.712;12.564;2024-01-11T05:58:06;1.6;;;1.5;;
83704;SDS011;73687;55.712;12.564;2024-01-11T06:01:06;2.4;;;1.8;;
83704;SDS011;73687;55.712;12.564;2024-01-11T06:04:06;2.2;;;1.9;;
83704;SDS011;73687;55.712;12.564;2024-01-11T06:07:06;2.6;;;2.1;;
83704;SDS011;73687;55.712;12.564;2024-01-11T06:10:07;2.1;;;1.8;;
83704;SDS011;73687;55.712;12.564;2024-01-11T06:13:06;1.7;;;1.4;;
83704;SDS011;73687;55.712;12.564;2024-01-11T06:16:06;2.1;;;1.8;;
83704;SDS011;73687;55.712;12.564;2024-01-11T06:19:06;2.0;;;1.5;;
83704;SDS011;73687;55.712;12.564;2024-01-11T06:22:06;1.8;;;1.5;;
83704;SDS011;73687;55.712;12.564;2024-01-11T06:25:07;1.7;;;1.4;;
83704;SDS011;73687;55.712;12.564;2024-01-11T06:28:06;1.8;;;1.6;;
83704;SDS011;73687;55.712;12.564;2024-01-11T06:31:06;1.6;;;1.4;;
83704;SDS011;73687;55.712;12.564;2024-01-11T06:34:07;2.1;;;1.9;;
83704;SDS011;73687;55.712;12.564;2024-01-11T06:37:07;2.3;;;1.8;;
83704;SDS011;73687;55.712;12.564;2024-01-11T06:40:07;2.1;;;1.8;;
83704;SDS011;73687;55.712;12.564;2024-01-11T06:43:07;2.0;;;1.7;;
83704;SDS011;73687;55.712;12.564;2024-01-11T06:46:06;2.7;;;2.1;;
83704;SDS011;73687;55.712;12.564;2024-01-11T06:49:06;53.1;;;47.4;;
83704;SDS011;73687;55.712;12.564;2024-01-11T06:52:07;31.9;;;28.4;;
83704;SDS011;73687;55.712;12.564;2024-01-11T06:55:07;20.4;;;18.3;;
83704;SDS011;73687;55.712;12.564;2024-01-11T06:58:06;12.5;;;11.2;;
83704;SDS011;73687;55.712;12.564;2024-01-11T07:01:07;8.9;;;7.2;;
83704;SDS011;73687;55.712;12.564;2024-01-11T07:04:07;7.8;;;5.7;;
83704;SDS011;73687;55.712;12.564;2024-01-11T07:07:07;4.0;;;3.6;;
83704;SDS011;73687;55.712;12.564;2024-01-11T07:10:07;4.2;;;3.8;;
83704;SDS011;73687;55.712;12.564;2024-01-11T07:13:07;3.2;;;2.6;;
83704;SDS011;73687;55.712;12.564;2024-01-11T07:16:07;3.3;;;2.8;;
83704;SDS011;73687;55.712;12.564;2024-01-11T07:19:07;3.3;;;2.5;;
83704;SDS011;73687;55.712;12.564;2024-01-11T07:22:07;2.4;;;1.9;;
83704;SDS011;73687;55.712;12.564;2024-01-11T07:25:07;2.5;;;2.3;;
83704;SDS011;73687;55.712;12.564;2024-01-11T07:28:07;2.2;;;1.6;;
83704;SDS011;73687;55.712;12.564;2024-01-11T07:31:06;2.5;;;2.3;;
83704;SDS011;73687;55.712;12.564;2024-01-11T07:34:07;2.0;;;1.6;;
83704;SDS011;73687;55.712;12.564;2024-01-11T07:37:07;2.0;;;1.2;;
83704;SDS011;73687;55.712;12.564;2024-01-11T07:40:08;2.0;;;1.7;;
83704;SDS011;73687;55.712;12.564;2024-01-11T07:43:07;2.2;;;1.7;;
83704;SDS011;73687;55.712;12.564;2024-01-11T07:46:07;1.9;;;1.2;;
83704;SDS011;73687;55.712;12.564;2024-01-11T07:49:07;2.4;;;1.8;;
83704;SDS011;73687;55.712;12.564;2024-01-11T07:52:07;1.7;;;1.6;;
83704;SDS011;73687;55.712;12.564;2024-01-11T07:55:07;2.3;;;1.6;;
83704;SDS011;73687;55.712;12.564;2024-01-11T07:58:07;2.0;;;1.5;;
83704;SDS011;73687;55.712;12.564;2024-01-11T08:01:07;1.9;;;1.6;;
83704;SDS011;73687;55.712;12.564;2024-01-11T08:04:07;2.0;;;1.6;;
83704;SDS011;73687;55.712;12.564;2024-01-11T08:07:07;2.1;;;1.7;;
83704;SDS011;73687;55.712;12.564;2024-01-11T08:10:07;2.1;;;1.8;;
83704;SDS011;73687;55.712;12.564;2024-01-11T08:13:06;1.7;;;1.2;;
83704;SDS011;73687;55.712;12.564;2024-01-11T08:16:06;1.5;;;1.2;;
83704;SDS011;73687;55.712;12.564;2024-01-11T08:19:06;1.9;;;1.4;;
83704;SDS011;73687;55.712;12.564;2024-01-11T08:22:07;2.2;;;1.9;;
83704;SDS011;73687;55.712;12.564;2024-01-11T08:25:07;2.7;;;2.3;;
83704;SDS011;73687;55.712;12.564;2024-01-11T08:28:07;2.8;;;2.4;;
83704;SDS011;73687;55.712;12.564;2024-01-11T08:31:07;2.8;;;2.6;;
83704;SDS011;73687;55.712;12.564;2024-01-11T08:34:07;2.5;;;2.2;;
83704;SDS011;73687;55.712;12.564;2024-01-11T08:37:07;3.2;;;2.9;;
83704;SDS011;73687;55.712;12.564;2024-01-11T08:40:07;2.3;;;2.1;;
83704;SDS011;73687;55.712;12.564;2024-01-11T08:43:07;2.2;;;2.0;;
83704;SDS011;73687;55.712;12.564;2024-01-11T08:46:07;1.9;;;1.8;;
83704;SDS011;73687;55.712;12.564;2024-01-11T08:49:07;2.1;;;2.0;;
83704;SDS011;73687;55.712;12.564;2024-01-11T08:52:07;3.6;;;3.4;;
83704;SDS011;73687;55.712;12.564;2024-01-11T08:55:07;6.3;;;6.0;;
83704;SDS011;73687;55.712;12.564;2024-01-11T08:58:07;6.2;;;5.9;;
83704;SDS011;73687;55.712;12.564;2024-01-11T09:01:07;6.2;;;5.9;;
83704;SDS011;73687;55.712;12.564;2024-01-11T09:04:07;8.6;;;8.2;;
83704;SDS011;73687;55.712;12.564;2024-01-11T09:07:07;9.5;;;9.1;;
83704;SDS011;73687;55.712;12.564;2024-01-11T09:10:07;10.9;;;10.5;;
83704;SDS011;73687;55.712;12.564;2024-01-11T09:13:06;14.3;;;13.8;;
83704;SDS011;73687;55.712;12.564;2024-01-11T09:16:06;16.6;;;16.0;;
83704;SDS011;73687;55.712;12.564;2024-01-11T09:19:06;23.4;;;22.6;;
83704;SDS011;73687;55.712;12.564;2024-01-11T09:22:06;23.6;;;22.8;;
83704;SDS011;73687;55.712;12.564;2024-01-11T09:25:07;18.1;;;17.5;;
83704;SDS011;73687;55.712;12.564;2024-01-11T09:28:07;18.8;;;18.2;;
83704;SDS011;73687;55.712;12.564;2024-01-11T09:31:07;7.3;;;7.0;;
83704;SDS011;73687;55.712;12.564;2024-01-11T09:34:06;5.8;;;5.5;;
83704;SDS011;73687;55.712;12.564;2024-01-11T09:37:06;7.6;;;7.3;;
83704;SDS011;73687;55.712;12.564;2024-01-11T09:40:07;15.2;;;14.7;;
83704;SDS011;73687;55.712;12.564;2024-01-11T09:43:07;15.0;;;14.4;;
83704;SDS011;73687;55.712;12.564;2024-01-11T09:46:06;16.6;;;16.1;;
83704;SDS011;73687;55.712;12.564;2024-01-11T09:49:06;15.8;;;15.3;;
83704;SDS011;73687;55.712;12.564;2024-01-11T09:52:06;14.1;;;13.6;;
83704;SDS011;73687;55.712;12.564;2024-01-11T09:55:06;13.1;;;12.7;;
83704;SDS011;73687;55.712;12.564;2024-01-11T09:58:06;5.7;;;5.5;;
83704;SDS011;73687;55.712;12.564;2024-01-11T10:01:08;4.4;;;4.2;;
83704;SDS011;73687;55.712;12.564;2024-01-11T10:04:07;1.8;;;1.7;;
83704;SDS011;73687;55.712;12.564;2024-01-11T10:07:07;1.6;;;1.5;;
83704;SDS011;73687;55.712;12.564;2024-01-11T10:10:07;1.4;;;1.3;;
83704;SDS011;73687;55.712;12.564;2024-01-11T10:13:07;1.8;;;1.7;;
83704;SDS011;73687;55.712;12.564;2024-01-11T10:16:08;1.2;;;1.1;;
83704;SDS011;73687;55.712;12.564;2024-01-11T10:19:06;1.2;;;1.1;;
83704;SDS011;73687;55.712;12.564;2024-01-11T10:22:06;1.3;;;1.0;;
83704;SDS011;73687;55.712;12.564;2024-01-11T10:25:08;1.5;;;1.3;;
83704;SDS011;73687;55.712;12.564;2024-01-11T10:28:07;1.2;;;1.1;;
83704;SDS011;73687;55.712;12.564;2024-01-11T10:31:06;1.1;;;1.0;;
83704;SDS011;73687;55.712;12.564;2024-01-11T10:34:06;1.1;;;0.9;;
83704;SDS011;73687;55.712;12.564;2024-01-11T10:37:06;1.1;;;1.0;;
83704;SDS011;73687;55.712;12.564;2024-01-11T10:40:07;1.4;;;1.3;;
83704;SDS011;73687;55.712;12.564;2024-01-11T10:43:07;1.6;;;1.5;;
83704;SDS011;73687;55.712;12.564;2024-01-11T10:46:07;1.8;;;1.7;;
83704;SDS011;73687;55.712;12.564;2024-01-11T10:49:06;1.7;;;1.5;;
83704;SDS011;73687;55.712;12.564;2024-01-11T10:52:07;1.9;;;1.8;;
83704;SDS011;73687;55.712;12.564;2024-01-11T10:55:07;1.7;;;1.6;;
83704;SDS011;73687;55.712;12.564;2024-01-11T10:58:07;2.3;;;2.2;;
83704;SDS011;73687;55.712;12.564;2024-01-11T11:01:07;5.2;;;5.0;;
83704;SDS011;73687;55.712;12.564;2024-01-11T11:04:07;11.4;;;11.0;;
83704;SDS011;73687;55.712;12.564;2024-01-11T11:07:07;18.1;;;17.5;;
83704;SDS011;73687;55.712;12.564;2024-01-11T11:10:07;26.5;;;25.6;;
83704;SDS011;73687;55.712;12.564;2024-01-11T11:13:08;31.6;;;30.6;;
83704;SDS011;73687;55.712;12.564;2024-01-11T11:16:07;132.8;;;128.6;;
83704;SDS011;73687;55.712;12.564;2024-01-11T11:19:07;1999.9;;;999.9;;
83704;SDS011;73687;55.712;12.564;2024-01-11T11:22:06;1999.9;;;999.9;;
83704;SDS011;73687;55.712;12.564;2024-01-11T11:25:08;1999.9;;;999.9;;
83704;SDS011;73687;55.712;12.564;2024-01-11T11:28:07;1999.9;;;999.9;;
83704;SDS011;73687;55.712;12.564;2024-01-11T11:31:07;1999.9;;;999.9;;
83704;SDS011;73687;55.712;12.564;2024-01-11T11:34:07;54.9;;;53.2;;
83704;SDS011;73687;55.712;12.564;2024-01-11T11:37:07;17.8;;;17.2;;
83704;SDS011;73687;55.712;12.564;2024-01-11T11:40:08;7.8;;;7.5;;
83704;SDS011;73687;55.712;12.564;2024-01-11T11:43:07;4.8;;;4.6;;
83704;SDS011;73687;55.712;12.564;2024-01-11T11:46:07;1.7;;;1.6;;
83704;SDS011;73687;55.712;12.564;2024-01-11T11:49:06;1.5;;;1.2;;
83704;SDS011;73687;55.712;12.564;2024-01-11T11:52:13;0.6;;;0.5;;
83704;SDS011;73687;55.712;12.564;2024-01-11T11:55:07;1.2;;;0.7;;
83704;SDS011;73687;55.712;12.564;2024-01-11T11:58:07;1.1;;;0.6;;
83704;SDS011;73687;55.712;12.564;2024-01-11T12:01:07;1.1;;;0.7;;
83704;SDS011;73687;55.712;12.564;2024-01-11T12:04:08;1.3;;;1.0;;
83704;SDS011;73687;55.712;12.564;2024-01-11T12:07:07;1.5;;;0.9;;
83704;SDS011;73687;55.712;12.564;2024-01-11T12:10:07;2.1;;;1.0;;
83704;SDS011;73687;55.712;12.564;2024-01-11T12:13:07;1.8;;;0.9;;
83704;SDS011;73687;55.712;12.564;2024-01-11T12:16:07;1.8;;;1.3;;
83704;SDS011;73687;55.712;12.564;2024-01-11T12:19:07;1.5;;;0.9;;
83704;SDS011;73687;55.712;12.564;2024-01-11T12:22:07;1.3;;;0.9;;
83704;SDS011;73687;55.712;12.564;2024-01-11T12:25:07;1.5;;;0.9;;
83704;SDS011;73687;55.712;12.564;2024-01-11T12:28:07;1.5;;;1.0;;
83704;SDS011;73687;55.712;12.564;2024-01-11T12:31:07;1.5;;;0.9;;
83704;SDS011;73687;55.712;12.564;2024-01-11T12:34:07;2.8;;;1.2;;
83704;SDS011;73687;55.712;12.564;2024-01-11T12:37:07;1.4;;;1.0;;
83704;SDS011;73687;55.712;12.564;2024-01-11T12:40:07;1.5;;;1.0;;
83704;SDS011;73687;55.712;12.564;2024-01-11T12:43:07;1.9;;;1.3;;
83704;SDS011;73687;55.712;12.564;2024-01-11T12:46:07;1.5;;;0.9;;
83704;SDS011;73687;55.712;12.564;2024-01-11T12:49:09;1.0;;;0.9;;
83704;SDS011;73687;55.712;12.564;2024-01-11T12:52:07;1.3;;;1.2;;
83704;SDS011;73687;55.712;12.564;2024-01-11T12:55:08;1.2;;;0.9;;
83704;SDS011;73687;55.712;12.564;2024-01-11T12:58:07;1.7;;;1.0;;
83704;SDS011;73687;55.712;12.564;2024-01-11T13:01:07;2.6;;;0.9;;
83704;SDS011;73687;55.712;12.564;2024-01-11T13:04:08;1.6;;;1.0;;
83704;SDS011;73687;55.712;12.564;2024-01-11T13:07:07;1.8;;;1.1;;
83704;SDS011;73687;55.712;12.564;2024-01-11T13:10:07;1.6;;;1.1;;
83704;SDS011;73687;55.712;12.564;2024-01-11T13:13:07;1.2;;;0.9;;
83704;SDS011;73687;55.712;12.564;2024-01-11T13:16:07;1.7;;;1.0;;
83704;SDS011;73687;55.712;12.564;2024-01-11T13:19:07;2.9;;;1.5;;
83704;SDS011;73687;55.712;12.564;2024-01-11T13:22:07;2.3;;;1.5;;
83704;SDS011;73687;55.712;12.564;2024-01-11T13:25:07;2.4;;;1.3;;
83704;SDS011;73687;55.712;12.564;2024-01-11T13:28:07;2.1;;;1.4;;
83704;SDS011;73687;55.712;12.564;2024-01-11T13:31:07;1.9;;;1.2;;
83704;SDS011;73687;55.712;12.564;2024-01-11T13:34:07;1.5;;;1.1;;
83704;SDS011;73687;55.712;12.564;2024-01-11T13:37:07;1.5;;;1.1;;
83704;SDS011;73687;55.712;12.564;2024-01-11T13:40:07;2.2;;;1.1;;
83704;SDS011;73687;55.712;12.564;2024-01-11T13:43:07;1.7;;;1.2;;
83704;SDS011;73687;55.712;12.564;2024-01-11T13:46:06;1.7;;;1.3;;
83704;SDS011;73687;55.712;12.564;2024-01-11T13:49:06;1.6;;;1.1;;
83704;SDS011;73687;55.712;12.564;2024-01-11T13:52:06;1.6;;;1.2;;
83704;SDS011;73687;55.712;12.564;2024-01-11T13:55:07;1.1;;;1.0;;
83704;SDS011;73687;55.712;12.564;2024-01-11T13:58:07;3.6;;;1.7;;
83704;SDS011;73687;55.712;12.564;2024-01-11T14:01:07;2.8;;;2.0;;
83704;SDS011;73687;55.712;12.564;2024-01-11T14:04:07;3.6;;;1.9;;
83704;SDS011;73687;55.712;12.564;2024-01-11T14:07:07;4.2;;;2.2;;
83704;SDS011;73687;55.712;12.564;2024-01-11T14:10:07;4.2;;;2.0;;
83704;SDS011;73687;55.712;12.564;2024-01-11T14:13:06;2.1;;;1.5;;
83704;SDS011;73687;55.712;12.564;2024-01-11T14:16:07;2.3;;;1.5;;
83704;SDS011;73687;55.712;12.564;2024-01-11T14:19:06;2.2;;;1.4;;
83704;SDS011;73687;55.712;12.564;2024-01-11T14:22:06;2.2;;;1.1;;
83704;SDS011;73687;55.712;12.564;2024-01-11T14:25:07;2.3;;;1.6;;
83704;SDS011;73687;55.712;12.564;2024-01-11T14:28:07;1.9;;;1.1;;
83704;SDS011;73687;55.712;12.564;2024-01-11T14:31:07;1.5;;;0.9;;
83704;SDS011;73687;55.712;12.564;2024-01-11T14:34:07;1.6;;;1.4;;
83704;SDS011;73687;55.712;12.564;2024-01-11T14:37:07;1.3;;;1.1;;
83704;SDS011;73687;55.712;12.564;2024-01-11T14:40:07;2.5;;;1.4;;
83704;SDS011;73687;55.712;12.564;2024-01-11T14:43:07;2.0;;;1.0;;
83704;SDS011;73687;55.712;12.564;2024-01-11T14:46:07;1.9;;;1.4;;
83704;SDS011;73687;55.712;12.564;2024-01-11T14:49:07;2.1;;;1.4;;
83704;SDS011;73687;55.712;12.564;2024-01-11T14:52:07;4.4;;;1.4;;
83704;SDS011;73687;55.712;12.564;2024-01-11T14:55:07;2.1;;;1.3;;
83704;SDS011;73687;55.712;12.564;2024-01-11T14:58:07;2.8;;;2.2;;
83704;SDS011;73687;55.712;12.564;2024-01-11T15:01:07;2.6;;;2.2;;
83704;SDS011;73687;55.712;12.564;2024-01-11T15:04:07;2.6;;;1.7;;
83704;SDS011;73687;55.712;12.564;2024-01-11T15:07:07;3.0;;;2.0;;
83704;SDS011;73687;55.712;12.564;2024-01-11T15:10:07;1.6;;;1.2;;
83704;SDS011;73687;55.712;12.564;2024-01-11T15:13:07;1.8;;;1.2;;
83704;SDS011;73687;55.712;12.564;2024-01-11T15:16:07;3.0;;;1.7;;
83704;SDS011;73687;55.712;12.564;2024-01-11T15:19:07;2.0;;;1.3;;
83704;SDS011;73687;55.712;12.564;2024-01-11T15:22:07;1.7;;;1.3;;
83704;SDS011;73687;55.712;12.564;2024-01-11T15:25:07;2.6;;;2.0;;
83704;SDS011;73687;55.712;12.564;2024-01-11T15:28:07;2.2;;;1.5;;
83704;SDS011;73687;55.712;12.564;2024-01-11T15:31:07;3.1;;;1.7;;
83704;SDS011;73687;55.712;12.564;2024-01-11T15:34:07;2.2;;;1.5;;
83704;SDS011;73687;55.712;12.564;2024-01-11T15:37:07;2.4;;;1.8;;
83704;SDS011;73687;55.712;12.564;2024-01-11T15:40:07;2.0;;;1.7;;
83704;SDS011;73687;55.712;12.564;2024-01-11T15:43:06;2.1;;;1.7;;
83704;SDS011;73687;55.712;12.564;2024-01-11T15:46:06;2.4;;;1.4;;
83704;SDS011;73687;55.712;12.564;2024-01-11T15:49:06;2.2;;;1.7;;
83704;SDS011;73687;55.712;12.564;2024-01-11T15:52:06;5.0;;;1.7;;
83704;SDS011;73687;55.712;12.564;2024-01-11T15:55:06;1.8;;;1.5;;
83704;SDS011;73687;55.712;12.564;2024-01-11T15:58:06;2.1;;;1.5;;
83704;SDS011;73687;55.712;12.564;2024-01-11T16:01:06;2.2;;;1.7;;
83704;SDS011;73687;55.712;12.564;2024-01-11T16:04:07;2.9;;;2.4;;
83704;SDS011;73687;55.712;12.564;2024-01-11T16:07:07;3.3;;;2.7;;
83704;SDS011;73687;55.712;12.564;2024-01-11T16:10:07;29.7;;;26.9;;
83704;SDS011;73687;55.712;12.564;2024-01-11T16:13:07;17.8;;;16.1;;
83704;SDS011;73687;55.712;12.564;2024-01-11T16:16:07;10.8;;;9.7;;
83704;SDS011;73687;55.712;12.564;2024-01-11T16:19:07;7.7;;;6.9;;
83704;SDS011;73687;55.712;12.564;2024-01-11T16:22:07;5.6;;;5.0;;
83704;SDS011;73687;55.712;12.564;2024-01-11T16:25:07;4.5;;;4.1;;
83704;SDS011;73687;55.712;12.564;2024-01-11T16:28:07;3.7;;;3.2;;
83704;SDS011;73687;55.712;12.564;2024-01-11T16:31:07;3.8;;;3.1;;
83704;SDS011;73687;55.712;12.564;2024-01-11T16:34:07;3.3;;;3.0;;
83704;SDS011;73687;55.712;12.564;2024-01-11T16:37:07;3.6;;;3.0;;
83704;SDS011;73687;55.712;12.564;2024-01-11T16:40:07;4.7;;;3.1;;
83704;SDS011;73687;55.712;12.564;2024-01-11T16:43:07;3.3;;;2.9;;
83704;SDS011;73687;55.712;12.564;2024-01-11T16:46:07;3.4;;;3.1;;
83704;SDS011;73687;55.712;12.564;2024-01-11T16:49:07;3.3;;;3.0;;
83704;SDS011;73687;55.712;12.564;2024-01-11T16:52:07;3.7;;;3.3;;
83704;SDS011;73687;55.712;12.564;2024-01-11T16:55:07;3.9;;;3.5;;
83704;SDS011;73687;55.712;12.564;2024-01-11T16:58:07;4.5;;;3.4;;
83704;SDS011;73687;55.712;12.564;2024-01-11T17:01:07;5.1;;;4.6;;
83704;SDS011;73687;55.712;12.564;2024-01-11T17:04:07;6.2;;;5.6;;
83704;SDS011;73687;55.712;12.564;2024-01-11T17:07:08;5.8;;;5.0;;
83704;SDS011;73687;55.712;12.564;2024-01-11T17:10:06;6.8;;;6.1;;
83704;SDS011;73687;55.712;12.564;2024-01-11T17:13:06;6.3;;;5.7;;
83704;SDS011;73687;55.712;12.564;2024-01-11T17:16:06;5.9;;;5.0;;
83704;SDS011;73687;55.712;12.564;2024-01-11T17:19:06;5.9;;;5.3;;
83704;SDS011;73687;55.712;12.564;2024-01-11T17:22:06;5.2;;;4.7;;
83704;SDS011;73687;55.712;12.564;2024-01-11T17:25:07;4.8;;;4.3;;
83704;SDS011;73687;55.712;12.564;2024-01-11T17:28:07;5.0;;;4.4;;
83704;SDS011;73687;55.712;12.564;2024-01-11T17:31:07;5.3;;;4.8;;
83704;SDS011;73687;55.712;12.564;2024-01-11T17:34:07;4.6;;;4.2;;
83704;SDS011;73687;55.712;12.564;2024-01-11T17:37:07;5.7;;;5.2;;
83704;SDS011;73687;55.712;12.564;2024-01-11T17:40:07;6.2;;;4.6;;
83704;SDS011;73687;55.712;12.564;2024-01-11T17:43:07;5.9;;;5.2;;
83704;SDS011;73687;55.712;12.564;2024-01-11T17:46:07;7.3;;;6.7;;
83704;SDS011;73687;55.712;12.564;2024-01-11T17:49:07;8.0;;;7.2;;
83704;SDS011;73687;55.712;12.564;2024-01-11T17:52:07;7.9;;;7.1;;
83704;SDS011;73687;55.712;12.564;2024-01-11T17:55:07;7.4;;;6.7;;
83704;SDS011;73687;55.712;12.564;2024-01-11T17:58:06;7.2;;;6.5;;
83704;SDS011;73687;55.712;12.564;2024-01-11T18:01:06;7.1;;;6.4;;
83704;SDS011;73687;55.712;12.564;2024-01-11T18:04:06;7.5;;;6.6;;
83704;SDS011;73687;55.712;12.564;2024-01-11T18:07:06;7.8;;;6.9;;
83704;SDS011;73687;55.712;12.564;2024-01-11T18:10:07;6.9;;;6.3;;
83704;SDS011;73687;55.712;12.564;2024-01-11T18:13:07;7.0;;;6.3;;
83704;SDS011;73687;55.712;12.564;2024-01-11T18:16:07;6.5;;;5.8;;